Time;durP1;ratioP1;P1;durP2;ratioP2;P2;SDS_P1;SDS_P2;PMS_P1;PMS_P2;Temp;Humidity;BMP_temperature;BMP_pressure;BME280_temperature;BME280_humidity;BME280_pressure;Samples;Min_cycle;Max_cycle;Signal;HPM_P1;HPM_P2
2023/05/11 00:00:16;;;;;;;54.92;28.65;;;;;;;13.04;89.74;100239.56;10333878;28;20137;-75
2023/05/11 00:05:20;;;;;;;49.85;28.25;;;;;;;13.11;89.83;100231.72;10330507;28;20062;-75
2023/05/11 00:10:24;;;;;;;53.13;27.98;;;;;;;13.13;89.83;100235.16;10319004;28;20126;-75
2023/05/11 00:15:27;;;;;;;53.35;28.50;;;;;;;13.12;89.48;100230.75;10327556;28;20069;-77
2023/05/11 00:20:29;;;;;;;52.05;27.58;;;;;;;12.99;89.23;100220.25;10328507;28;20473;-77
2023/05/11 00:25:34;;;;;;;56.28;29.63;;;;;;;12.93;89.54;100221.69;10330364;28;20113;-77
2023/05/11 00:30:36;;;;;;;54.92;28.50;;;;;;;12.96;89.75;100221.41;10329116;28;20105;-77
2023/05/11 00:35:39;;;;;;;63.85;30.85;;;;;;;12.96;89.80;100224.09;10327141;28;20537;-77
2023/05/11 00:40:44;;;;;;;59.20;29.05;;;;;;;12.98;89.62;100215.88;10328116;28;20133;-77
2023/05/11 00:45:48;;;;;;;53.20;29.13;;;;;;;12.96;89.72;100216.00;10327383;28;20043;-77
2023/05/11 00:50:51;;;;;;;59.42;29.60;;;;;;;12.98;89.64;100216.72;10325980;28;20421;-77
2023/05/11 00:55:55;;;;;;;51.95;26.48;;;;;;;12.98;89.65;100210.50;10347594;28;20051;-76
2023/05/11 01:00:58;;;;;;;48.83;27.58;;;;;;;12.98;89.55;100208.63;10331247;28;20043;-77
2023/05/11 01:06:08;;;;;;;54.38;28.55;;;;;;;12.96;89.81;100210.63;10332756;28;20089;-77
2023/05/11 01:11:17;;;;;;;57.80;30.75;;;;;;;12.97;89.60;100208.75;10333055;28;20527;-77
2023/05/11 01:16:23;;;;;;;55.80;30.00;;;;;;;13.02;89.46;100215.41;10330828;28;20042;-77
2023/05/11 01:21:33;;;;;;;53.25;28.02;;;;;;;13.02;89.57;100214.56;10349417;28;20120;-76
2023/05/11 01:26:59;;;;;;;52.00;28.45;;;;;;;13.07;89.71;100220.41;10336565;28;20073;-76
2023/05/11 01:32:09;;;;;;;58.88;30.23;;;;;;;13.13;89.96;100214.41;10334518;28;20050;-77
2023/05/11 01:37:18;;;;;;;62.25;30.75;;;;;;;13.11;89.89;100218.25;10331608;28;20089;-76
2023/05/11 01:42:26;;;;;;;58.97;28.77;;;;;;;13.10;89.62;100227.34;10330667;28;20045;-77
2023/05/11 01:47:31;;;;;;;58.97;28.73;;;;;;;13.05;89.49;100217.84;10331449;28;20045;-77
2023/05/11 01:52:36;;;;;;;54.60;28.60;;;;;;;13.07;89.59;100220.41;10347228;28;20046;-77
2023/05/11 01:57:39;;;;;;;54.78;27.85;;;;;;;13.05;89.57;100231.34;10332764;28;20445;-77
2023/05/11 02:02:46;;;;;;;58.92;28.10;;;;;;;13.08;89.88;100229.31;10350532;28;20049;-77
2023/05/11 02:07:51;;;;;;;55.67;29.08;;;;;;;13.06;89.80;100226.78;10337074;28;20509;-78
2023/05/11 02:12:55;;;;;;;58.17;29.95;;;;;;;13.03;89.42;100230.63;10339802;28;20065;-76
2023/05/11 02:18:04;;;;;;;58.22;29.90;;;;;;;12.99;89.37;100239.13;10354527;28;20112;-76
2023/05/11 02:23:08;;;;;;;59.72;31.45;;;;;;;12.98;89.48;100230.22;10332635;28;20135;-75
2023/05/11 02:28:11;;;;;;;59.15;30.75;;;;;;;12.96;89.51;100237.56;10330252;28;20043;-75
2023/05/11 02:33:21;;;;;;;52.45;28.08;;;;;;;12.94;89.81;100227.94;10334006;28;20030;-77
2023/05/11 02:38:31;;;;;;;51.97;26.88;;;;;;;12.94;89.58;100234.16;10330270;28;20046;-76
2023/05/11 02:43:36;;;;;;;59.13;29.60;;;;;;;12.99;89.70;100237.28;10329993;28;20692;-76
2023/05/11 02:48:44;;;;;;;64.93;31.55;;;;;;;13.03;89.53;100236.03;10335388;28;20041;-77
2023/05/11 02:53:51;;;;;;;69.65;33.88;;;;;;;13.01;89.88;100234.47;10337732;28;20573;-77
2023/05/11 02:58:54;;;;;;;54.20;28.42;;;;;;;12.97;88.58;100233.91;10340424;28;20049;-76
2023/05/11 03:04:04;;;;;;;61.03;30.35;;;;;;;12.88;89.51;100240.13;10336939;28;20557;-77
2023/05/11 03:09:07;;;;;;;58.95;29.88;;;;;;;12.95;89.54;100237.75;10335500;28;20506;-77
2023/05/11 03:14:16;;;;;;;55.72;30.60;;;;;;;12.99;89.60;100242.69;10352324;28;20039;-77
2023/05/11 03:19:22;;;;;;;61.88;30.38;;;;;;;13.01;89.76;100237.16;10347436;28;20058;-77
2023/05/11 03:24:26;;;;;;;60.60;28.92;;;;;;;12.95;89.01;100241.28;10330031;28;20525;-77
2023/05/11 03:29:31;;;;;;;57.50;29.73;;;;;;;12.86;88.80;100227.78;10332932;28;20051;-77
2023/05/11 03:34:35;;;;;;;54.47;29.38;;;;;;;12.94;89.79;100236.88;10349914;28;20560;-77
2023/05/11 03:39:41;;;;;;;56.03;30.05;;;;;;;12.96;89.55;100231.34;10351060;28;20101;-76
2023/05/11 03:44:46;;;;;;;58.10;29.67;;;;;;;13.00;89.68;100233.63;10338846;28;20501;-77
2023/05/11 03:49:52;;;;;;;51.92;27.50;;;;;;;13.03;89.45;100233.31;10334444;28;20275;-77
2023/05/11 03:54:55;;;;;;;50.25;27.73;;;;;;;13.00;88.78;100228.22;10336096;28;20040;-77
2023/05/11 03:59:58;;;;;;;51.58;28.63;;;;;;;12.94;88.44;100233.31;10338595;28;20046;-77
2023/05/11 04:05:06;;;;;;;55.22;29.63;;;;;;;12.90;89.19;100235.47;10338917;28;20108;-77
2023/05/11 04:10:10;;;;;;;51.08;29.35;;;;;;;12.86;88.40;100225.94;10332901;28;20056;-77
2023/05/11 04:15:13;;;;;;;53.30;28.70;;;;;;;12.86;89.30;100233.19;10377201;23;20048;-76
2023/05/11 04:20:17;;;;;;;61.13;31.10;;;;;;;12.91;88.81;100236.31;10332227;28;20057;-76
2023/05/11 04:25:21;;;;;;;59.30;31.20;;;;;;;12.95;89.42;100237.75;10339921;28;20042;-78
2023/05/11 04:30:24;;;;;;;63.17;31.63;;;;;;;13.04;89.71;100240.41;10341767;28;20436;-76
2023/05/11 04:35:28;;;;;;;69.10;33.42;;;;;;;13.15;90.04;100239.41;10337933;28;20046;-77
2023/05/11 04:40:31;;;;;;;66.28;33.20;;;;;;;13.18;89.83;100232.88;10334211;28;20287;-77
2023/05/11 04:45:37;;;;;;;69.60;34.05;;;;;;;13.18;89.84;100241.81;10336788;28;20505;-77
2023/05/11 04:50:41;;;;;;;67.55;33.25;;;;;;;13.24;89.87;100241.22;10348866;28;20042;-77
2023/05/11 04:55:45;;;;;;;67.43;33.28;;;;;;;13.30;89.73;100245.19;10329544;28;20046;-77
2023/05/11 05:00:49;;;;;;;71.85;35.92;;;;;;;13.33;89.84;100247.63;10331941;28;20050;-78
2023/05/11 05:05:55;;;;;;;70.63;33.97;;;;;;;13.37;89.74;100251.75;10338412;28;20042;-77
2023/05/11 05:10:58;;;;;;;66.05;33.85;;;;;;;13.41;89.97;100257.69;10333500;28;20038;-79
2023/05/11 05:16:01;;;;;;;72.32;34.45;;;;;;;13.43;89.73;100261.94;10333270;28;20108;-77
2023/05/11 05:21:06;;;;;;;73.97;34.85;;;;;;;13.44;89.51;100252.03;10335694;28;20042;-76
2023/05/11 05:26:09;;;;;;;67.90;33.53;;;;;;;13.49;90.38;100265.91;10338598;28;20038;-76
2023/05/11 05:31:13;;;;;;;64.75;33.08;;;;;;;13.56;89.89;100275.13;10339176;28;20791;-77
2023/05/11 05:36:18;;;;;;;65.53;32.15;;;;;;;13.56;89.48;100271.59;10343716;28;20046;-77
2023/05/11 05:41:22;;;;;;;55.30;29.75;;;;;;;13.47;88.72;100276.00;10338273;28;20052;-77
2023/05/11 05:46:26;;;;;;;53.75;28.60;;;;;;;13.56;89.23;100279.69;10346118;28;20050;-78
2023/05/11 05:51:31;;;;;;;55.42;29.10;;;;;;;13.65;89.34;100284.19;10341213;28;20051;-77
2023/05/11 05:56:34;;;;;;;54.30;28.63;;;;;;;13.79;89.33;100285.56;10354964;28;20078;-78
2023/05/11 06:01:45;;;;;;;48.58;26.65;;;;;;;14.00;89.86;100294.28;10357990;28;20412;-78
2023/05/11 06:06:51;;;;;;;46.92;27.15;;;;;;;14.20;89.96;100292.34;10359359;28;20385;-77
2023/05/11 06:11:54;;;;;;;39.20;25.13;;;;;;;14.25;89.52;100294.59;10347850;28;20469;-77
2023/05/11 06:16:59;;;;;;;42.45;24.38;;;;;;;14.48;89.12;100297.75;10344499;28;20663;-77
2023/05/11 06:22:05;;;;;;;41.63;25.30;;;;;;;14.61;88.51;100298.25;10346377;28;20097;-77
2023/05/11 06:27:10;;;;;;;42.53;23.38;;;;;;;14.71;88.32;100287.38;10336725;28;20038;-77
2023/05/11 06:32:14;;;;;;;37.38;23.35;;;;;;;14.88;88.18;100282.97;10345682;28;20065;-77
2023/05/11 06:37:20;;;;;;;39.60;23.88;;;;;;;14.97;88.23;100300.97;10348840;28;20045;-77
2023/05/11 06:42:25;;;;;;;9.23;5.53;;;;;;;14.91;86.09;100290.78;10337505;28;20053;-77
2023/05/11 06:47:38;;;;;;;29.35;17.17;;;;;;;14.87;84.79;100290.25;10339668;28;20516;-77
2023/05/11 06:52:43;;;;;;;14.93;10.02;;;;;;;15.05;86.09;100293.75;10338748;28;20046;-77
2023/05/11 06:57:46;;;;;;;23.83;16.13;;;;;;;15.21;85.15;100287.66;10339653;28;20052;-77
2023/05/11 07:02:48;;;;;;;27.45;14.82;;;;;;;15.35;82.91;100294.38;10339277;28;20053;-77
2023/05/11 07:07:53;;;;;;;23.67;15.52;;;;;;;15.12;83.13;100296.72;10339344;28;20129;-76
2023/05/11 07:12:55;;;;;;;27.20;17.55;;;;;;;15.36;83.58;100296.09;10349475;28;20433;-77
2023/05/11 07:18:00;;;;;;;27.65;18.38;;;;;;;15.53;84.90;100291.66;10351768;28;20050;-77
2023/05/11 07:23:04;;;;;;;26.83;17.80;;;;;;;15.59;84.01;100296.41;10347735;28;20042;-78
2023/05/11 07:28:07;;;;;;;28.73;18.65;;;;;;;15.67;82.01;100298.34;10350825;28;20046;-78
2023/05/11 07:33:10;;;;;;;31.95;19.73;;;;;;;15.70;81.83;100298.00;10348844;28;20409;-78
2023/05/11 07:38:14;;;;;;;30.90;19.30;;;;;;;15.69;81.90;100301.75;10344179;28;20505;-77
2023/05/11 07:43:17;;;;;;;34.60;21.00;;;;;;;15.44;79.86;100298.88;10344639;28;20073;-77
2023/05/11 07:48:20;;;;;;;40.63;21.40;;;;;;;15.53;81.66;100307.03;10362815;28;20049;-76
2023/05/11 07:53:24;;;;;;;32.97;20.55;;;;;;;15.55;80.03;100297.75;10346730;28;20049;-75
2023/05/11 07:58:27;;;;;;;36.13;20.52;;;;;;;15.61;81.29;100304.41;10345971;28;20034;-76
2023/05/11 08:03:31;;;;;;;32.55;20.45;;;;;;;15.83;81.73;100303.84;10345753;28;20069;-76
2023/05/11 08:08:36;;;;;;;35.58;21.00;;;;;;;15.73;79.93;100308.53;10345078;28;20050;-78
2023/05/11 08:13:39;;;;;;;35.95;21.77;;;;;;;15.80;83.46;100303.34;10330159;28;20066;-77
2023/05/11 08:18:41;;;;;;;36.00;21.52;;;;;;;15.75;80.99;100311.09;10338927;28;20058;-75
2023/05/11 08:23:46;;;;;;;38.70;21.77;;;;;;;15.85;82.93;100304.53;10339999;28;20038;-76
2023/05/11 08:28:50;;;;;;;32.95;21.02;;;;;;;16.16;81.46;100309.44;10337000;28;20069;-78
2023/05/11 08:33:53;;;;;;;37.45;22.48;;;;;;;16.06;79.57;100298.72;10344479;28;20100;-76
2023/05/11 08:38:58;;;;;;;35.30;18.70;;;;;;;15.88;77.97;100311.50;10356804;28;20046;-76
2023/05/11 08:44:01;;;;;;;16.90;12.18;;;;;;;15.59;80.03;100311.81;10343743;28;20049;-77
2023/05/11 08:49:04;;;;;;;9.52;8.55;;;;;;;14.98;81.44;100308.94;10341971;28;20050;-76
2023/05/11 08:54:08;;;;;;;9.70;8.70;;;;;;;14.76;82.52;100318.34;10342070;28;20039;-78
2023/05/11 08:59:13;;;;;;;12.60;10.38;;;;;;;14.43;83.94;100305.50;10355930;28;20042;-78
2023/05/11 09:04:18;;;;;;;12.13;10.40;;;;;;;14.09;85.22;100319.53;10344298;28;20046;-79
2023/05/11 09:09:22;;;;;;;13.38;12.05;;;;;;;14.18;86.91;100324.06;10339898;28;20497;-76
2023/05/11 09:14:25;;;;;;;15.05;13.27;;;;;;;14.51;87.35;100325.34;10336138;28;20061;-77
2023/05/11 09:19:29;;;;;;;14.90;12.38;;;;;;;14.65;86.79;100321.28;10343231;28;20047;-78
2023/05/11 09:24:34;;;;;;;14.52;12.07;;;;;;;14.71;88.01;100323.38;10343777;28;20069;-77
2023/05/11 09:29:37;;;;;;;14.30;12.82;;;;;;;14.79;87.83;100317.19;10334403;28;20077;-77
2023/05/11 09:34:40;;;;;;;12.63;11.32;;;;;;;14.74;89.08;100322.22;10301281;28;20151;-76
2023/05/11 09:39:46;;;;;;;13.15;11.85;;;;;;;14.87;89.23;100322.69;10296934;28;20131;-76
2023/05/11 09:44:54;;;;;;;10.80;9.75;;;;;;;15.01;89.35;100319.44;10304827;28;20190;-77
2023/05/11 09:49:57;;;;;;;10.85;9.75;;;;;;;15.10;88.82;100322.22;10313872;28;20140;-77
2023/05/11 09:55:10;;;;;;;9.55;8.02;;;;;;;14.93;88.51;100330.19;10315528;28;20054;-78
2023/05/11 10:00:14;;;;;;;8.77;7.97;;;;;;;14.96;89.27;100320.91;10317420;28;20513;-78
2023/05/11 10:05:17;;;;;;;10.05;8.43;;;;;;;14.80;89.09;100332.41;10321246;28;20046;-76
2023/05/11 10:10:22;;;;;;;9.50;8.40;;;;;;;14.86;89.92;100317.41;10328758;28;20054;-78
2023/05/11 10:15:27;;;;;;;10.18;8.05;;;;;;;14.91;89.41;100325.94;10318293;28;20053;-77
2023/05/11 10:20:30;;;;;;;12.40;8.55;;;;;;;15.00;88.87;100317.75;10317786;28;20073;-77
2023/05/11 10:25:35;;;;;;;9.38;8.15;;;;;;;14.94;90.74;100325.63;10323993;28;20056;-78
2023/05/11 10:30:38;;;;;;;10.45;9.35;;;;;;;15.08;91.19;100321.53;10322483;28;20104;-77
2023/05/11 10:35:41;;;;;;;9.60;8.43;;;;;;;15.12;90.96;100312.09;10322726;28;20054;-77
2023/05/11 10:40:46;;;;;;;8.38;7.55;;;;;;;15.07;90.93;100309.00;10328686;28;20106;-77
2023/05/11 10:45:55;;;;;;;8.93;7.05;;;;;;;15.05;89.65;100314.56;10317877;28;20073;-78
2023/05/11 10:51:15;;;;;;;8.45;6.80;;;;;;;14.86;92.62;100328.25;10320543;28;20046;-77
2023/05/11 10:56:34;;;;;;;8.23;7.35;;;;;;;14.98;90.79;100313.50;10318875;28;20106;-76
2023/05/11 11:01:38;;;;;;;5.68;5.18;;;;;;;14.80;89.52;100316.19;10320836;28;20074;-77
2023/05/11 11:06:43;;;;;;;5.30;4.90;;;;;;;14.90;90.48;100324.25;10320180;28;20460;-78
2023/05/11 11:11:49;;;;;;;5.57;5.10;;;;;;;15.13;90.70;100320.03;10313423;28;20073;-76
2023/05/11 11:17:22;;;;;;;6.05;5.45;;;;;;;15.50;91.62;100324.44;10307778;28;20529;-77
2023/05/11 11:22:52;;;;;;;6.03;5.43;;;;;;;15.78;91.90;100327.00;10304503;28;20073;-77
2023/05/11 11:27:58;;;;;;;5.05;4.55;;;;;;;15.78;89.59;100327.84;10267422;28;20117;-76
2023/05/11 11:33:33;;;;;;;5.38;4.88;;;;;;;15.67;90.98;100328.13;10309241;28;20155;-77
2023/05/11 11:38:57;;;;;;;5.88;5.28;;;;;;;15.62;90.68;100322.31;10303801;28;21205;-77
2023/05/11 11:44:02;;;;;;;6.78;5.35;;;;;;;15.99;91.13;100318.47;10304160;28;20046;-78
2023/05/11 11:49:09;;;;;;;5.38;4.90;;;;;;;15.88;89.16;100325.03;10303233;28;20053;-71
2023/05/11 11:54:12;;;;;;;7.88;6.68;;;;;;;15.71;89.46;100324.06;10305916;28;20093;-81
2023/05/11 11:59:17;;;;;;;7.40;6.65;;;;;;;15.69;89.47;100331.53;10313130;28;20093;-76
2023/05/11 12:04:49;;;;;;;13.23;8.18;;;;;;;15.69;88.89;100329.66;10317305;28;20043;-77
2023/05/11 12:09:52;;;;;;;;;;;;;;;15.42;88.70;100327.09;10315039;28;20074;-78
2023/05/11 12:14:58;;;;;;;;;;;;;;;15.53;90.81;100329.53;10320897;28;19925;-77
2023/05/11 12:20:12;;;;;;;12.98;9.32;;;;;;;15.72;89.66;100333.06;10320293;28;21165;-77
2023/05/11 12:25:16;;;;;;;11.82;9.63;;;;;;;15.89;89.37;100327.56;10310811;28;20058;-78
2023/05/11 12:30:23;;;;;;;12.02;10.35;;;;;;;16.18;89.88;100320.97;10322838;28;20054;-78
2023/05/11 12:35:27;;;;;;;13.05;10.45;;;;;;;16.16;87.49;100320.28;10316216;28;20494;-78
2023/05/11 12:40:30;;;;;;;10.07;8.30;;;;;;;16.04;85.98;100324.25;10319074;28;20058;-79
2023/05/11 12:45:34;;;;;;;10.57;9.48;;;;;;;15.90;85.94;100321.13;10325598;28;20046;-76
2023/05/11 12:50:40;;;;;;;10.48;9.10;;;;;;;15.70;86.21;100316.97;10339020;28;20051;-76
2023/05/11 12:55:43;;;;;;;11.13;9.68;;;;;;;15.57;89.28;100321.94;10331027;28;20077;-77
2023/05/11 13:00:55;;;;;;;13.13;10.40;;;;;;;15.92;89.13;100315.56;10342005;28;20069;-77
2023/05/11 13:06:05;;;;;;;13.77;11.35;;;;;;;16.18;82.76;100312.84;10313920;28;20148;-77
2023/05/11 13:11:18;;;;;;;15.70;14.00;;;;;;;16.30;82.98;100311.56;10300332;28;20273;-77
2023/05/11 13:16:26;;;;;;;21.17;15.23;;;;;;;16.38;82.35;100318.03;10301723;28;20071;-77
2023/05/11 13:21:31;;;;;;;21.42;15.48;;;;;;;16.45;82.97;100314.47;10316985;28;20058;-77
2023/05/11 13:26:34;;;;;;;18.00;13.73;;;;;;;16.45;82.08;100306.34;10325241;28;20168;-77
2023/05/11 13:31:44;;;;;;;17.20;15.13;;;;;;;16.49;81.90;100298.75;10317722;28;20050;-78
2023/05/11 13:36:47;;;;;;;19.70;15.77;;;;;;;16.86;81.76;100305.59;10314305;28;20046;-77
2023/05/11 13:41:50;;;;;;;18.58;15.32;;;;;;;16.36;79.75;100296.50;10316937;28;21195;-78
2023/05/11 13:46:58;;;;;;;17.73;14.25;;;;;;;16.48;80.77;100306.03;10321409;28;20444;-79
2023/05/11 13:52:01;;;;;;;16.77;14.35;;;;;;;16.66;81.70;100291.50;10312768;28;20049;-78
2023/05/11 13:57:05;;;;;;;14.82;13.25;;;;;;;16.98;81.42;100298.84;10303507;28;20054;-78
2023/05/11 14:02:10;;;;;;;11.85;10.55;;;;;;;17.11;78.23;100287.47;10316280;28;20066;-79
2023/05/11 14:07:14;;;;;;;11.05;9.77;;;;;;;17.07;77.57;100291.56;10315583;28;20050;-77
2023/05/11 14:12:17;;;;;;;11.23;8.93;;;;;;;16.81;79.63;100285.25;10312892;28;20054;-79
2023/05/11 14:17:21;;;;;;;9.95;8.95;;;;;;;16.85;79.28;100280.34;10311679;28;20101;-77
2023/05/11 14:22:24;;;;;;;10.55;9.18;;;;;;;16.92;78.56;100283.22;10319509;28;20517;-78
2023/05/11 14:27:27;;;;;;;8.38;7.57;;;;;;;16.46;79.00;100280.09;10316891;28;20280;-78
2023/05/11 14:32:31;;;;;;;7.32;6.63;;;;;;;16.18;80.22;100284.88;10320405;28;20105;-79
2023/05/11 14:37:34;;;;;;;9.02;7.68;;;;;;;16.00;80.52;100280.41;10312841;28;20141;-79
2023/05/11 14:42:36;;;;;;;8.63;7.68;;;;;;;15.91;81.48;100278.69;10318882;28;20054;-77
2023/05/11 14:47:41;;;;;;;11.02;8.45;;;;;;;15.95;82.09;100279.19;10312238;28;20057;-78
2023/05/11 14:52:44;;;;;;;10.40;9.30;;;;;;;15.89;82.26;100291.53;10310220;28;20057;-79
2023/05/11 14:57:46;;;;;;;9.73;8.73;;;;;;;15.53;81.69;100286.22;10311752;28;20755;-77
2023/05/11 15:02:51;;;;;;;11.30;9.50;;;;;;;15.23;83.86;100282.09;10315838;28;20073;-79
2023/05/11 15:07:54;;;;;;;8.63;7.63;;;;;;;14.99;83.61;100280.03;10317174;28;20142;-77
2023/05/11 15:13:00;;;;;;;10.43;9.32;;;;;;;15.10;84.77;100279.78;10310158;28;20050;-79
2023/05/11 15:18:04;;;;;;;10.18;8.98;;;;;;;15.18;85.25;100293.38;10314335;28;20468;-78
2023/05/11 15:23:07;;;;;;;11.90;8.68;;;;;;;15.15;86.01;100293.69;10308894;28;20073;-79
2023/05/11 15:28:11;;;;;;;15.63;10.02;;;;;;;15.21;87.35;100295.75;10315258;28;20110;-78
2023/05/11 15:33:15;;;;;;;12.57;9.90;;;;;;;15.23;87.63;100296.47;10312839;28;20114;-77
2023/05/11 15:38:18;;;;;;;13.10;10.13;;;;;;;15.23;88.29;100293.75;10316302;28;20050;-78
2023/05/11 15:43:21;;;;;;;13.63;11.40;;;;;;;15.02;88.38;100299.47;10314455;28;20070;-78
2023/05/11 15:48:25;;;;;;;11.88;9.57;;;;;;;14.77;87.58;100298.41;10318605;28;20679;-78
2023/05/11 15:53:28;;;;;;;11.98;8.35;;;;;;;14.70;88.92;100304.56;10315848;28;20136;-79
2023/05/11 15:58:31;;;;;;;9.75;8.65;;;;;;;14.69;88.58;100295.63;10315521;28;20509;-76
2023/05/11 16:03:35;;;;;;;9.85;7.97;;;;;;;14.68;88.80;100298.50;10314861;28;20053;-78
2023/05/11 16:08:38;;;;;;;9.55;8.15;;;;;;;14.55;88.30;100297.00;10309944;28;20057;-77
2023/05/11 16:13:41;;;;;;;11.93;9.02;;;;;;;14.56;89.32;100292.44;10313921;28;20048;-78
2023/05/11 16:18:46;;;;;;;13.48;10.23;;;;;;;14.53;89.23;100295.44;10310509;28;20151;-77
2023/05/11 16:23:49;;;;;;;17.83;10.48;;;;;;;14.53;89.72;100299.00;10298306;28;20053;-77
2023/05/11 16:28:51;;;;;;;12.48;10.50;;;;;;;14.55;88.95;100291.59;10312929;28;20181;-77
2023/05/11 16:33:56;;;;;;;12.70;10.75;;;;;;;14.47;89.27;100283.41;10308764;28;20096;-77
2023/05/11 16:38:58;;;;;;;17.02;12.02;;;;;;;14.34;88.73;100297.25;10302986;28;20290;-78
2023/05/11 16:44:01;;;;;;;12.10;10.02;;;;;;;14.13;89.22;100292.09;10321331;28;20046;-77
2023/05/11 16:49:06;;;;;;;16.75;10.93;;;;;;;14.07;89.36;100298.09;10306833;28;20053;-76
2023/05/11 16:54:09;;;;;;;17.02;11.88;;;;;;;14.07;89.87;100297.22;10298063;28;20501;-77
2023/05/11 16:59:13;;;;;;;15.15;10.43;;;;;;;14.09;89.91;100296.09;10296463;28;20066;-77
2023/05/11 17:04:17;;;;;;;20.45;12.65;;;;;;;14.11;90.05;100298.66;10300475;28;20073;-78
2023/05/11 17:09:20;;;;;;;18.00;11.73;;;;;;;14.04;89.73;100298.41;10295990;28;20054;-77
2023/05/11 17:14:23;;;;;;;17.00;11.57;;;;;;;14.04;90.18;100294.81;10296284;28;20533;-78
2023/05/11 17:19:27;;;;;;;21.33;12.70;;;;;;;13.96;89.73;100292.03;10299406;28;20128;-78
2023/05/11 17:24:30;;;;;;;28.50;14.90;;;;;;;13.87;89.40;100300.00;10300624;28;20145;-78
2023/05/11 17:29:33;;;;;;;29.30;15.57;;;;;;;13.86;89.92;100297.47;10295048;28;20065;-77
2023/05/11 17:34:37;;;;;;;28.33;16.58;;;;;;;13.83;89.95;100308.56;10300993;28;20057;-78
2023/05/11 17:39:40;;;;;;;28.88;16.25;;;;;;;13.88;90.38;100298.19;10322650;28;20519;-77
2023/05/11 17:44:44;;;;;;;30.77;17.77;;;;;;;13.84;90.28;100300.31;10319468;28;20092;-77
2023/05/11 17:49:48;;;;;;;35.30;16.55;;;;;;;13.85;90.17;100303.84;10321631;28;20073;-79
2023/05/11 17:54:51;;;;;;;34.58;17.42;;;;;;;13.78;89.81;100302.75;10317715;28;21208;-77
2023/05/11 17:59:54;;;;;;;33.65;17.77;;;;;;;13.77;89.99;100309.13;10317151;28;20172;-75
2023/05/11 18:05:00;;;;;;;38.65;19.52;;;;;;;13.76;90.18;100311.00;10307624;28;20054;-75
2023/05/11 18:10:04;;;;;;;36.72;19.40;;;;;;;13.75;90.16;100305.75;10312292;28;20053;-74
2023/05/11 18:15:07;;;;;;;43.97;21.80;;;;;;;13.70;90.01;100304.34;10320782;28;20061;-74
2023/05/11 18:20:12;;;;;;;40.08;21.48;;;;;;;13.69;90.11;100305.34;10311080;28;20042;-73
2023/05/11 18:25:15;;;;;;;46.17;22.98;;;;;;;13.70;90.18;100307.03;10299280;28;20137;-74
2023/05/11 18:30:18;;;;;;;40.13;21.08;;;;;;;13.68;89.65;100313.56;10298965;28;20565;-75
2023/05/11 18:35:23;;;;;;;43.45;20.95;;;;;;;13.58;89.99;100305.53;10311157;28;20575;-74
2023/05/11 18:40:26;;;;;;;36.67;20.67;;;;;;;13.59;89.89;100307.22;10302260;28;20085;-75
2023/05/11 18:45:29;;;;;;;37.53;21.05;;;;;;;13.61;90.24;100315.19;10316737;28;20594;-75
2023/05/11 18:50:33;;;;;;;43.90;22.48;;;;;;;13.57;90.21;100316.44;10316927;28;21273;-76
2023/05/11 18:55:36;;;;;;;42.13;23.05;;;;;;;13.56;90.33;100321.00;10304317;28;20109;-75
2023/05/11 19:00:54;;;;;;;47.75;24.90;;;;;;;13.52;90.81;100325.00;10269707;28;20054;-75
2023/05/11 19:05:59;;;;;;;54.00;27.38;;;;;;;13.53;90.56;100332.09;10308091;28;20072;-73
2023/05/11 19:11:07;;;;;;;55.58;27.27;;;;;;;13.57;90.70;100336.19;10318665;28;20049;-73
2023/05/11 19:16:10;;;;;;;56.47;28.20;;;;;;;13.60;90.62;100335.03;10313734;28;20046;-75
2023/05/11 19:21:14;;;;;;;57.50;29.20;;;;;;;13.60;90.69;100344.03;10304381;28;20042;-74
2023/05/11 19:26:17;;;;;;;62.08;30.40;;;;;;;13.50;95.50;100335.06;10305900;28;20129;-73
2023/05/11 19:31:21;;;;;;;64.93;30.13;;;;;;;13.49;93.40;100325.25;10313129;28;20569;-74
2023/05/11 19:36:26;;;;;;;63.88;31.05;;;;;;;13.44;91.22;100328.41;10307291;28;20501;-74
2023/05/11 19:41:29;;;;;;;66.55;30.88;;;;;;;13.31;92.44;100335.91;10302553;28;20192;-76
2023/05/11 19:46:31;;;;;;;69.85;32.88;;;;;;;13.32;92.20;100342.16;10309325;28;20082;-75
2023/05/11 19:51:36;;;;;;;73.35;33.38;;;;;;;13.32;91.58;100358.34;10303136;28;20058;-74
2023/05/11 19:56:39;;;;;;;76.05;35.05;;;;;;;13.32;91.41;100353.78;10302784;28;20054;-74
2023/05/11 20:01:42;;;;;;;75.43;34.42;;;;;;;13.34;91.53;100354.50;10299495;28;20050;-75
2023/05/11 20:06:46;;;;;;;75.13;35.50;;;;;;;13.37;91.91;100359.66;10300192;28;20132;-74
2023/05/11 20:11:49;;;;;;;72.57;34.65;;;;;;;13.41;91.73;100361.09;10307155;28;20050;-74
2023/05/11 20:16:51;;;;;;;81.18;37.15;;;;;;;13.43;91.68;100367.16;10308027;28;20125;-75
2023/05/11 20:21:56;;;;;;;81.68;36.30;;;;;;;13.43;91.92;100363.63;10308013;28;20128;-73
2023/05/11 20:26:59;;;;;;;82.75;37.58;;;;;;;13.48;91.89;100366.75;10306059;28;20056;-73
2023/05/11 20:32:03;;;;;;;96.90;39.35;;;;;;;13.48;91.43;100367.59;10303356;28;20050;-74
2023/05/11 20:37:08;;;;;;;89.88;39.38;;;;;;;13.47;91.62;100360.50;10300877;28;20133;-73
2023/05/11 20:42:11;;;;;;;92.85;40.58;;;;;;;13.49;92.10;100354.94;10301746;28;20129;-74
2023/05/11 20:47:14;;;;;;;96.72;43.92;;;;;;;13.46;91.80;100348.00;10298136;28;20065;-73
2023/05/11 20:52:19;;;;;;;94.93;41.17;;;;;;;13.41;91.50;100354.81;10302677;28;20054;-75
2023/05/11 20:57:22;;;;;;;89.00;41.53;;;;;;;13.42;91.47;100357.38;10300318;28;20125;-75
2023/05/11 21:02:25;;;;;;;102.93;45.55;;;;;;;13.44;91.76;100365.34;10302693;28;20042;-75
2023/05/11 21:07:29;;;;;;;99.88;43.80;;;;;;;13.52;91.99;100372.69;10300106;28;20061;-74
2023/05/11 21:12:32;;;;;;;98.70;44.50;;;;;;;13.53;91.84;100380.66;10300078;28;20050;-74
2023/05/11 21:17:35;;;;;;;101.07;44.50;;;;;;;13.52;91.74;100381.66;10297096;28;20520;-74
2023/05/11 21:22:40;;;;;;;92.10;41.63;;;;;;;13.51;91.76;100376.41;10300367;28;20225;-74
2023/05/11 21:27:42;;;;;;;89.80;41.72;;;;;;;13.46;91.79;100377.66;10295151;28;20046;-73
2023/05/11 21:32:46;;;;;;;94.03;40.63;;;;;;;13.47;91.74;100386.63;10297975;28;20188;-75
2023/05/11 21:37:50;;;;;;;94.65;43.63;;;;;;;13.44;91.53;100386.94;10295199;28;20088;-74
2023/05/11 21:42:52;;;;;;;97.70;43.70;;;;;;;13.39;92.01;100381.94;10320579;28;22013;-72
2023/05/11 21:47:57;;;;;;;96.53;43.72;;;;;;;13.45;91.68;100392.16;10297363;28;21189;-75
2023/05/11 21:53:01;;;;;;;94.28;42.65;;;;;;;13.48;91.80;100399.13;10295414;28;20046;-75
2023/05/11 21:58:04;;;;;;;84.60;41.42;;;;;;;13.47;91.61;100400.97;10318548;28;20069;-75
2023/05/11 22:03:07;;;;;;;96.20;42.92;;;;;;;13.45;91.54;100402.13;10333611;28;20109;-74
2023/05/11 22:08:12;;;;;;;93.20;41.38;;;;;;;13.36;91.27;100408.34;10332915;28;20042;-76
2023/05/11 22:13:17;;;;;;;90.05;43.30;;;;;;;13.26;91.38;100405.63;10332807;28;20066;-74
2023/05/11 22:18:20;;;;;;;92.40;42.28;;;;;;;13.21;91.31;100402.50;10335534;28;20409;-75
2023/05/11 22:23:24;;;;;;;90.32;43.35;;;;;;;13.14;91.01;100402.22;10341611;28;20050;-75
2023/05/11 22:28:27;;;;;;;94.50;42.95;;;;;;;13.06;91.35;100415.56;10339913;28;20042;-75
2023/05/11 22:33:30;;;;;;;89.85;42.33;;;;;;;13.00;91.07;100418.78;10340948;28;20050;-74
2023/05/11 22:38:36;;;;;;;97.75;43.92;;;;;;;12.96;90.96;100422.75;10341831;28;20129;-74
2023/05/11 22:43:39;;;;;;;96.68;43.53;;;;;;;12.88;90.80;100419.91;10338796;28;20398;-74
2023/05/11 22:48:41;;;;;;;97.80;43.35;;;;;;;12.78;90.96;100431.53;10340750;28;20043;-74
2023/05/11 22:53:47;;;;;;;99.97;44.75;;;;;;;12.72;90.80;100428.50;10341909;28;20042;-75